createdAt,value
2023-05-20T00:00:54.465Z,245.74
2023-05-20T00:01:54.509Z,242.19
2023-05-20T00:02:54.664Z,249.00
2023-05-20T00:03:54.731Z,249.75
2023-05-20T00:04:54.771Z,244.25
2023-05-20T00:05:54.788Z,239.99
2023-05-20T00:06:54.821Z,243.70
2023-05-20T00:07:54.881Z,241.11
2023-05-20T00:08:54.956Z,237.24
2023-05-20T00:09:55.029Z,235.39
2023-05-20T00:10:55.089Z,235.53
2023-05-20T00:11:55.146Z,235.57
2023-05-20T00:12:55.191Z,240.09
2023-05-20T00:13:55.193Z,243.55
2023-05-20T00:14:56.022Z,238.83
2023-05-20T00:15:55.242Z,240.49
2023-05-20T00:16:55.376Z,241.66
2023-05-20T00:17:55.321Z,244.37
2023-05-20T00:18:55.305Z,245.50
2023-05-20T00:19:55.302Z,241.00
2023-05-20T00:20:55.377Z,246.13
2023-05-20T00:21:55.366Z,245.22
2023-05-20T00:22:55.489Z,242.71
2023-05-20T00:23:55.421Z,238.84
2023-05-20T00:24:55.430Z,239.35
2023-05-20T00:25:55.969Z,240.06
2023-05-20T00:26:55.505Z,243.28
2023-05-20T00:27:55.542Z,238.71
2023-05-20T00:28:55.535Z,242.75
2023-05-20T00:29:55.578Z,236.53
2023-05-20T00:30:55.656Z,242.61
2023-05-20T00:31:55.739Z,249.39
2023-05-20T00:32:55.771Z,247.97
2023-05-20T00:33:55.829Z,241.55
2023-05-20T00:34:55.889Z,241.77
2023-05-20T00:35:55.934Z,243.75
2023-05-20T00:36:56.043Z,239.94
2023-05-20T00:37:56.090Z,240.03
2023-05-20T00:38:56.097Z,244.54
2023-05-20T00:39:56.152Z,249.01
2023-05-20T00:40:56.330Z,246.08
2023-05-20T00:41:56.348Z,246.36
2023-05-20T00:42:56.245Z,245.46
2023-05-20T00:43:56.284Z,245.86
2023-05-20T00:44:56.271Z,248.76
2023-05-20T00:45:56.397Z,249.57
2023-05-20T00:46:56.335Z,249.76
2023-05-20T00:47:56.525Z,249.88
2023-05-20T00:48:56.416Z,249.32
2023-05-20T00:49:56.460Z,242.93
2023-05-20T00:50:56.490Z,241.03
2023-05-20T00:51:56.519Z,241.02
2023-05-20T00:52:56.571Z,242.84
2023-05-20T00:53:56.656Z,244.37
2023-05-20T00:54:56.702Z,248.62
2023-05-20T00:55:56.759Z,246.55
2023-05-20T00:56:56.845Z,249.01
2023-05-20T00:57:56.896Z,241.95
2023-05-20T00:58:56.909Z,246.05
2023-05-20T00:59:56.941Z,246.92
2023-05-20T01:00:57.015Z,244.71
2023-05-20T01:01:57.005Z,241.54
2023-05-20T01:02:57.145Z,242.99
2023-05-20T01:03:57.040Z,241.27
2023-05-20T01:04:57.064Z,239.85
2023-05-20T01:05:57.066Z,242.40
2023-05-20T01:06:57.099Z,243.74
2023-05-20T01:07:57.212Z,241.86
2023-05-20T01:08:57.182Z,238.54
2023-05-20T01:09:57.224Z,236.75
2023-05-20T01:10:57.280Z,236.41
2023-05-20T01:11:57.352Z,235.54
2023-05-20T01:12:57.447Z,239.29
2023-05-20T01:13:57.489Z,239.39
2023-05-20T01:14:57.556Z,237.42
2023-05-20T01:15:57.628Z,242.55
2023-05-20T01:16:57.667Z,245.99
2023-05-20T01:17:57.809Z,246.43
2023-05-20T01:18:57.770Z,247.20
2023-05-20T01:19:57.757Z,244.88
2023-05-20T01:20:57.770Z,239.79
2023-05-20T01:21:58.009Z,241.85
2023-05-20T01:22:58.005Z,246.51
2023-05-20T01:23:58.014Z,249.80
2023-05-20T01:24:58.070Z,248.89
2023-05-20T01:25:58.177Z,247.83
2023-05-20T01:26:58.053Z,246.52
2023-05-20T01:27:58.170Z,249.02
2023-05-20T01:28:58.186Z,244.31
2023-05-20T01:29:58.149Z,247.79
2023-05-20T01:30:58.193Z,247.02
2023-05-20T01:31:58.169Z,246.88
2023-05-20T01:32:58.281Z,247.23
2023-05-20T01:33:58.564Z,249.91
2023-05-20T01:34:58.246Z,245.62
2023-05-20T01:35:58.268Z,243.74
2023-05-20T01:36:58.298Z,243.32
2023-05-20T01:37:58.358Z,243.43
2023-05-20T01:38:58.348Z,244.77
2023-05-20T01:39:58.386Z,247.02
2023-05-20T01:40:58.441Z,249.35
2023-05-20T01:41:58.500Z,248.31
2023-05-20T01:42:58.509Z,248.50
2023-05-20T01:43:58.542Z,246.87
2023-05-20T01:44:58.561Z,248.05
2023-05-20T01:45:58.578Z,246.42
2023-05-20T01:46:58.699Z,242.96
2023-05-20T01:47:58.649Z,245.36
2023-05-20T01:48:58.622Z,243.17
2023-05-20T01:49:58.648Z,241.84
2023-05-20T01:50:58.722Z,241.58
2023-05-20T01:51:58.747Z,245.26
2023-05-20T01:52:58.775Z,246.40
2023-05-20T01:53:58.789Z,248.18
2023-05-20T01:54:58.830Z,247.20
2023-05-20T01:55:58.884Z,246.66
2023-05-20T01:56:58.898Z,249.57
2023-05-20T01:57:58.939Z,249.63
2023-05-20T01:58:58.954Z,246.38
2023-05-20T01:59:58.960Z,247.95
2023-05-20T02:00:59.118Z,245.91
2023-05-20T02:01:59.038Z,247.69
2023-05-20T02:02:59.084Z,247.81
2023-05-20T02:03:59.078Z,244.42
2023-05-20T02:04:59.122Z,246.00
2023-05-20T02:05:59.196Z,246.78
2023-05-20T02:06:59.206Z,245.89
2023-05-20T02:07:59.238Z,241.73
2023-05-20T02:08:59.302Z,242.66
2023-05-20T02:09:59.324Z,247.72
2023-05-20T02:10:59.347Z,247.67
2023-05-20T02:11:59.366Z,245.74
2023-05-20T02:12:59.420Z,246.33
2023-05-20T02:13:59.457Z,246.62
2023-05-20T02:14:59.497Z,248.76
2023-05-20T02:15:59.518Z,249.20
2023-05-20T02:16:59.625Z,250.00
2023-05-20T02:17:59.633Z,248.94
2023-05-20T02:18:59.662Z,246.56
2023-05-20T02:19:59.892Z,246.40
2023-05-20T02:20:59.711Z,246.78
2023-05-20T02:21:59.817Z,249.25
2023-05-20T02:22:59.806Z,248.90
2023-05-20T02:23:59.853Z,249.96
2023-05-20T02:24:59.902Z,248.42
2023-05-20T02:25:59.901Z,248.48
2023-05-20T02:26:59.923Z,244.00
2023-05-20T02:27:59.947Z,245.10
2023-05-20T02:29:00.155Z,246.10
2023-05-20T02:29:59.958Z,248.60
2023-05-20T02:30:59.950Z,245.71
2023-05-20T02:31:59.981Z,246.27
2023-05-20T02:33:00.036Z,250.00
2023-05-20T02:34:00.028Z,246.05
2023-05-20T02:34:59.998Z,247.64
2023-05-20T02:35:59.988Z,248.39
2023-05-20T02:36:59.988Z,249.42
2023-05-20T02:37:59.984Z,247.39
2023-05-20T02:39:00.128Z,243.08
2023-05-20T02:40:00.019Z,244.78
2023-05-20T02:41:00.053Z,248.99
2023-05-20T02:42:00.068Z,248.85
2023-05-20T02:43:00.129Z,247.43
2023-05-20T02:44:00.098Z,246.94
2023-05-20T02:45:00.113Z,247.08
2023-05-20T02:46:00.211Z,248.98
2023-05-20T02:47:00.143Z,249.72
2023-05-20T02:48:00.276Z,248.40
2023-05-20T02:49:00.175Z,246.49
2023-05-20T02:50:00.204Z,246.08
2023-05-20T02:51:00.226Z,247.10
2023-05-20T02:52:00.255Z,245.70
2023-05-20T02:53:00.271Z,246.20
2023-05-20T02:54:00.307Z,244.87
2023-05-20T02:55:00.354Z,245.80
2023-05-20T02:56:00.331Z,245.46
2023-05-20T02:57:00.355Z,247.32
2023-05-20T02:58:00.342Z,247.81
2023-05-20T02:59:00.326Z,247.57
2023-05-20T03:00:00.338Z,249.08
2023-05-20T03:01:00.356Z,248.37
2023-05-20T03:02:00.476Z,245.67
2023-05-20T03:03:00.336Z,247.39
2023-05-20T03:04:00.390Z,243.63
2023-05-20T03:05:00.325Z,243.37
2023-05-20T03:06:00.323Z,244.14
2023-05-20T03:07:00.314Z,243.90
2023-05-20T03:08:00.364Z,245.29
2023-05-20T03:09:00.370Z,245.76
2023-05-20T03:10:00.393Z,247.47
2023-05-20T03:11:00.429Z,245.65
2023-05-20T03:12:00.424Z,249.73
2023-05-20T03:13:00.405Z,248.85
2023-05-20T03:14:00.398Z,247.51
2023-05-20T03:15:00.418Z,247.44
2023-05-20T03:16:00.461Z,247.30
2023-05-20T03:17:00.485Z,246.91
2023-05-20T03:18:00.543Z,247.85
2023-05-20T03:19:00.539Z,250.00
2023-05-20T03:20:00.498Z,247.16
2023-05-20T03:21:00.501Z,245.77
2023-05-20T03:22:00.499Z,244.72
2023-05-20T03:23:00.518Z,245.96
2023-05-20T03:24:00.536Z,243.31
2023-05-20T03:25:00.580Z,244.89
2023-05-20T03:26:00.577Z,241.77
2023-05-20T03:27:00.614Z,241.74
2023-05-20T03:28:00.660Z,243.35
2023-05-20T03:29:00.674Z,246.14
2023-05-20T03:30:00.689Z,243.94
2023-05-20T03:31:00.804Z,245.44
2023-05-20T03:32:00.774Z,246.64
2023-05-20T03:33:00.854Z,244.69
2023-05-20T03:34:00.850Z,245.11
2023-05-20T03:35:00.888Z,246.01
2023-05-20T03:36:00.956Z,249.12
2023-05-20T03:37:00.962Z,248.02
2023-05-20T03:38:01.055Z,249.67
2023-05-20T03:39:01.056Z,247.79
2023-05-20T03:40:01.089Z,248.37
2023-05-20T03:41:01.133Z,248.94
2023-05-20T03:42:01.204Z,248.80
2023-05-20T03:43:01.345Z,249.40
2023-05-20T03:44:01.283Z,249.57
2023-05-20T03:45:01.413Z,247.54
2023-05-20T03:46:01.355Z,245.15
2023-05-20T03:47:01.440Z,244.30
2023-05-20T03:48:01.452Z,244.07
2023-05-20T03:49:01.429Z,244.28
2023-05-20T03:50:01.487Z,245.63
2023-05-20T03:51:01.516Z,245.66
2023-05-20T03:52:01.492Z,244.37
2023-05-20T03:53:01.516Z,244.57
2023-05-20T03:54:01.720Z,245.10
2023-05-20T03:55:01.576Z,243.86
2023-05-20T03:56:01.602Z,242.59
2023-05-20T03:57:01.644Z,244.55
2023-05-20T03:58:01.680Z,245.00
2023-05-20T03:59:01.712Z,243.32
2023-05-20T04:00:01.745Z,243.10
2023-05-20T04:01:01.802Z,242.99
2023-05-20T04:02:01.899Z,244.40
2023-05-20T04:03:01.948Z,245.16
2023-05-20T04:04:01.918Z,243.27
2023-05-20T04:05:01.931Z,243.77
2023-05-20T04:06:01.938Z,243.28
2023-05-20T04:07:01.955Z,242.80
2023-05-20T04:08:01.976Z,242.63
2023-05-20T04:09:01.952Z,242.82
2023-05-20T04:10:01.940Z,245.03
2023-05-20T04:11:01.962Z,243.93
2023-05-20T04:12:01.953Z,244.08
2023-05-20T04:13:01.983Z,243.53
2023-05-20T04:14:01.984Z,247.54
2023-05-20T04:15:02.020Z,248.78
2023-05-20T04:16:02.038Z,247.43
2023-05-20T04:17:02.070Z,248.35
2023-05-20T04:18:02.082Z,245.26
2023-05-20T04:19:02.076Z,245.83
2023-05-20T04:20:02.066Z,244.87
2023-05-20T04:21:02.097Z,242.86
2023-05-20T04:22:02.135Z,240.97
2023-05-20T04:23:02.175Z,244.47
2023-05-20T04:24:02.178Z,246.54
2023-05-20T04:25:02.239Z,246.36
2023-05-20T04:26:02.291Z,246.43
2023-05-20T04:27:02.220Z,247.21
2023-05-20T04:28:02.230Z,241.84
2023-05-20T04:29:02.262Z,243.59
2023-05-20T04:30:02.325Z,246.56
2023-05-20T04:31:02.394Z,242.91
2023-05-20T04:32:02.484Z,244.07
2023-05-20T04:33:02.726Z,243.27
2023-05-20T04:34:02.487Z,242.64
2023-05-20T04:35:02.495Z,244.79
2023-05-20T04:36:02.532Z,246.77
2023-05-20T04:37:02.566Z,244.40
2023-05-20T04:38:02.568Z,247.52
2023-05-20T04:39:02.632Z,246.09
2023-05-20T04:40:02.640Z,243.81
2023-05-20T04:41:02.715Z,241.98
2023-05-20T04:42:02.765Z,244.33
2023-05-20T04:43:02.811Z,241.24
2023-05-20T04:44:02.828Z,242.11
2023-05-20T04:45:02.870Z,244.19
2023-05-20T04:46:02.984Z,245.20
2023-05-20T04:47:02.945Z,245.40
2023-05-20T04:48:03.085Z,245.89
2023-05-20T04:49:03.032Z,243.72
2023-05-20T04:50:03.115Z,242.71
2023-05-20T04:51:03.181Z,241.98
2023-05-20T04:52:03.224Z,242.99
2023-05-20T04:53:03.290Z,243.57
2023-05-20T04:54:03.350Z,242.16
2023-05-20T04:55:03.409Z,240.76
2023-05-20T04:56:03.552Z,241.24
2023-05-20T04:57:03.522Z,237.64
2023-05-20T04:58:03.596Z,236.13
2023-05-20T04:59:03.636Z,232.49
2023-05-20T05:00:03.713Z,230.84
2023-05-20T05:01:03.783Z,229.34
2023-05-20T05:02:03.797Z,225.62
2023-05-20T05:03:03.836Z,220.60
2023-05-20T05:04:03.843Z,217.42
2023-05-20T05:05:04.009Z,215.35
2023-05-20T05:06:03.907Z,215.02
2023-05-20T05:07:03.952Z,211.66
2023-05-20T05:08:03.972Z,202.85
2023-05-20T05:09:04.019Z,200.94
2023-05-20T05:10:03.997Z,195.15
2023-05-20T05:11:04.022Z,198.21
2023-05-20T05:12:04.039Z,201.09
2023-05-20T05:13:04.030Z,203.25
2023-05-20T05:14:04.060Z,200.52
2023-05-20T05:15:04.061Z,199.31
2023-05-20T05:16:04.076Z,205.45
2023-05-20T05:17:04.063Z,209.52
2023-05-20T05:18:04.166Z,217.37
2023-05-20T05:19:04.120Z,218.97
2023-05-20T05:20:04.083Z,223.85
2023-05-20T05:21:04.086Z,229.19
2023-05-20T05:22:04.080Z,225.05
2023-05-20T05:23:04.072Z,224.81
2023-05-20T05:24:04.083Z,220.98
2023-05-20T05:25:04.076Z,221.14
2023-05-20T05:26:04.061Z,222.59
2023-05-20T05:27:04.104Z,222.29
2023-05-20T05:28:04.126Z,223.85
2023-05-20T05:29:04.149Z,218.08
2023-05-20T05:30:04.184Z,219.49
2023-05-20T05:31:04.198Z,222.70
2023-05-20T05:32:04.283Z,217.13
2023-05-20T05:33:04.375Z,217.33
2023-05-20T05:34:04.311Z,218.50
2023-05-20T05:35:06.682Z,218.42
2023-05-20T05:36:04.358Z,218.46
2023-05-20T05:37:04.353Z,212.75
2023-05-20T05:38:04.340Z,217.26
2023-05-20T05:39:04.345Z,213.48
2023-05-20T05:40:04.321Z,216.64
2023-05-20T05:41:04.306Z,211.60
2023-05-20T05:42:04.311Z,211.23
2023-05-20T05:43:04.329Z,204.07
2023-05-20T05:44:04.291Z,194.93
2023-05-20T05:45:04.284Z,191.65
2023-05-20T05:46:04.265Z,181.51
2023-05-20T05:47:04.354Z,174.45
2023-05-20T05:48:04.325Z,173.20
2023-05-20T05:49:04.271Z,172.08
2023-05-20T05:50:04.252Z,175.16
2023-05-20T05:51:04.254Z,180.37
2023-05-20T05:52:04.303Z,174.83
2023-05-20T05:53:04.242Z,171.13
2023-05-20T05:54:04.230Z,171.05
2023-05-20T05:55:04.208Z,164.37
2023-05-20T05:56:04.204Z,169.67
2023-05-20T05:57:05.859Z,170.80
2023-05-20T05:58:04.184Z,170.64
2023-05-20T05:59:04.179Z,168.54
2023-05-20T06:00:04.222Z,168.69
2023-05-20T06:01:04.290Z,171.54
2023-05-20T06:02:04.426Z,173.05
2023-05-20T06:03:04.482Z,175.51
2023-05-20T06:04:04.503Z,174.77
2023-05-20T06:05:04.561Z,176.14
2023-05-20T06:06:04.537Z,172.61
2023-05-20T06:07:04.574Z,175.95
2023-05-20T06:08:04.656Z,170.18
2023-05-20T06:09:04.606Z,162.19
2023-05-20T06:10:04.627Z,165.35
2023-05-20T06:11:04.690Z,158.89
2023-05-20T06:12:04.717Z,154.34
2023-05-20T06:13:04.795Z,154.81
2023-05-20T06:14:04.875Z,156.99
2023-05-20T06:15:04.920Z,156.58
2023-05-20T06:16:04.911Z,159.20
2023-05-20T06:17:04.959Z,160.33
2023-05-20T06:18:05.033Z,155.76
2023-05-20T06:19:05.125Z,154.17
2023-05-20T06:20:05.058Z,149.84
2023-05-20T06:21:05.071Z,150.18
2023-05-20T06:22:05.121Z,155.17
2023-05-20T06:23:05.152Z,150.02
2023-05-20T06:24:05.372Z,147.85
2023-05-20T06:25:05.339Z,151.55
2023-05-20T06:26:05.372Z,149.87
2023-05-20T06:27:05.312Z,149.27
2023-05-20T06:28:05.374Z,149.76
2023-05-20T06:29:05.449Z,148.61
2023-05-20T06:30:05.483Z,156.66
2023-05-20T06:31:05.617Z,154.50
2023-05-20T06:32:05.585Z,157.80
2023-05-20T06:33:05.708Z,159.80
2023-05-20T06:34:05.666Z,162.24
2023-05-20T06:35:05.668Z,158.89
2023-05-20T06:36:05.709Z,157.78
2023-05-20T06:37:05.732Z,165.05
2023-05-20T06:38:05.904Z,161.24
2023-05-20T06:39:05.867Z,156.37
2023-05-20T06:40:05.942Z,159.88
2023-05-20T06:41:05.966Z,164.54
2023-05-20T06:42:06.032Z,163.34
2023-05-20T06:43:06.053Z,156.86
2023-05-20T06:44:06.122Z,162.86
2023-05-20T06:45:06.149Z,153.22
2023-05-20T06:46:06.224Z,151.46
2023-05-20T06:47:06.218Z,149.73
2023-05-20T06:48:06.311Z,137.82
2023-05-20T06:49:06.271Z,139.80
2023-05-20T06:50:06.352Z,138.85
2023-05-20T06:51:06.331Z,135.34
2023-05-20T06:52:06.373Z,139.88
2023-05-20T06:53:06.388Z,137.60
2023-05-20T06:54:06.438Z,140.22
2023-05-20T06:55:06.461Z,149.27
2023-05-20T06:56:06.464Z,150.11
2023-05-20T06:57:06.647Z,154.26
2023-05-20T06:58:06.518Z,157.04
2023-05-20T06:59:06.532Z,163.61
2023-05-20T07:00:06.554Z,163.62
2023-05-20T07:01:06.569Z,157.40
2023-05-20T07:02:06.849Z,158.47
2023-05-20T07:03:06.642Z,153.91
2023-05-20T07:04:06.611Z,147.70
2023-05-20T07:05:06.597Z,135.21
2023-05-20T07:06:06.617Z,133.73
2023-05-20T07:07:06.644Z,139.39
2023-05-20T07:08:06.708Z,146.76
2023-05-20T07:09:06.777Z,154.28
2023-05-20T07:10:06.798Z,163.71
2023-05-20T07:11:06.827Z,166.58
2023-05-20T07:12:06.850Z,169.15
2023-05-20T07:13:06.836Z,170.39
2023-05-20T07:14:06.828Z,170.30
2023-05-20T07:15:06.885Z,170.55
2023-05-20T07:16:06.923Z,151.26
2023-05-20T07:17:06.913Z,152.81
2023-05-20T07:18:06.995Z,156.58
2023-05-20T07:19:06.961Z,160.68
2023-05-20T07:20:06.976Z,162.41
2023-05-20T07:21:07.055Z,165.57
2023-05-20T07:22:07.069Z,162.70
2023-05-20T07:23:07.118Z,164.18
2023-05-20T07:24:07.125Z,161.74
2023-05-20T07:25:07.151Z,164.94
2023-05-20T07:26:07.188Z,160.76
2023-05-20T07:27:07.220Z,130.84
2023-05-20T07:28:07.227Z,116.75
2023-05-20T07:29:07.292Z,103.61
2023-05-20T07:30:07.302Z,99.76
2023-05-20T07:31:07.336Z,84.54
2023-05-20T07:32:07.389Z,67.52
2023-05-20T07:33:07.371Z,66.23
2023-05-20T07:34:07.349Z,70.66
2023-05-20T07:35:07.379Z,61.46
2023-05-20T07:36:09.107Z,66.96
2023-05-20T07:37:07.352Z,71.72
2023-05-20T07:38:07.359Z,75.61
2023-05-20T07:39:11.711Z,81.58
2023-05-20T07:40:08.329Z,82.01
2023-05-20T07:41:07.338Z,83.57
2023-05-20T07:42:07.465Z,78.11
2023-05-20T07:43:07.320Z,72.24
2023-05-20T07:44:07.327Z,51.59
2023-05-20T07:45:07.295Z,72.83
2023-05-20T07:46:07.361Z,72.84
2023-05-20T07:47:07.271Z,86.13
2023-05-20T07:48:07.399Z,72.91
2023-05-20T07:49:07.288Z,49.65
2023-05-20T07:50:07.263Z,41.34
2023-05-20T07:51:07.262Z,41.41
2023-05-20T07:52:07.290Z,40.00
2023-05-20T07:53:07.337Z,55.05
2023-05-20T07:54:07.341Z,54.33
2023-05-20T07:55:07.371Z,55.20
2023-05-20T07:56:07.439Z,56.93
2023-05-20T07:57:07.547Z,75.00
2023-05-20T07:58:07.511Z,77.54
2023-05-20T07:59:07.534Z,88.94
2023-05-20T08:00:07.547Z,90.70
2023-05-20T08:01:07.577Z,92.15
2023-05-20T08:02:07.689Z,103.42
2023-05-20T08:03:07.905Z,106.71
2023-05-20T08:04:07.797Z,100.07
2023-05-20T08:05:07.788Z,102.41
2023-05-20T08:06:07.722Z,111.67
2023-05-20T08:07:07.767Z,109.60
2023-05-20T08:08:07.778Z,109.97
2023-05-20T08:09:07.784Z,118.42
2023-05-20T08:10:07.802Z,87.39
2023-05-20T08:11:07.822Z,69.51
2023-05-20T08:12:07.871Z,47.17
2023-05-20T08:13:07.874Z,25.00
2023-05-20T08:14:07.953Z,32.53
2023-05-20T08:15:07.941Z,27.95
2023-05-20T08:16:07.982Z,46.89
2023-05-20T08:17:08.111Z,70.22
2023-05-20T08:18:08.126Z,77.15
2023-05-20T08:19:08.249Z,84.59
2023-05-20T08:20:08.214Z,86.81
2023-05-20T08:21:08.271Z,80.25
2023-05-20T08:22:08.351Z,83.03
2023-05-20T08:23:08.438Z,83.14
2023-05-20T08:24:08.417Z,95.49
2023-05-20T08:25:08.571Z,93.57
2023-05-20T08:26:08.444Z,90.58
2023-05-20T08:27:08.443Z,95.16
2023-05-20T08:28:08.560Z,87.80
2023-05-20T08:29:08.577Z,84.88
2023-05-20T08:30:08.652Z,86.35
2023-05-20T08:31:08.726Z,76.22
2023-05-20T08:32:08.714Z,78.10
2023-05-20T08:33:08.940Z,82.39
2023-05-20T08:34:08.818Z,83.20
2023-05-20T08:35:08.848Z,79.85
2023-05-20T08:36:08.901Z,73.94
2023-05-20T08:37:08.891Z,73.78
2023-05-20T08:38:08.924Z,64.41
2023-05-20T08:39:08.933Z,50.97
2023-05-20T08:40:08.983Z,50.02
2023-05-20T08:41:08.998Z,42.41
2023-05-20T08:42:09.022Z,45.97
2023-05-20T08:43:09.026Z,34.10
2023-05-20T08:44:09.070Z,31.55
2023-05-20T08:45:09.063Z,28.57
2023-05-20T08:46:09.084Z,30.47
2023-05-20T08:47:09.186Z,32.82
2023-05-20T08:48:09.122Z,35.39
2023-05-20T08:49:09.116Z,27.35
2023-05-20T08:50:09.136Z,35.54
2023-05-20T08:51:09.193Z,35.98
2023-05-20T08:52:09.246Z,30.27
2023-05-20T08:53:09.302Z,29.83
2023-05-20T08:54:09.310Z,30.33
2023-05-20T08:55:09.305Z,26.57
2023-05-20T08:56:09.324Z,28.97
2023-05-20T08:57:09.333Z,32.24
2023-05-20T08:58:09.370Z,32.26
2023-05-20T08:59:09.377Z,24.68
2023-05-20T09:00:09.426Z,25.15
2023-05-20T09:01:09.479Z,25.84
2023-05-20T09:02:09.600Z,25.19
2023-05-20T09:03:09.611Z,25.00
2023-05-20T09:04:09.670Z,30.65
2023-05-20T09:05:09.837Z,37.71
2023-05-20T09:06:09.737Z,38.71
2023-05-20T09:07:09.740Z,34.18
2023-05-20T09:08:09.815Z,32.69
2023-05-20T09:09:09.806Z,30.61
2023-05-20T09:10:09.788Z,29.80
2023-05-20T09:11:09.798Z,29.14
2023-05-20T09:12:09.894Z,25.00
2023-05-20T09:13:09.791Z,25.69
2023-05-20T09:14:09.802Z,38.37
2023-05-20T09:15:09.810Z,39.45
2023-05-20T09:16:09.806Z,39.49
2023-05-20T09:17:09.783Z,36.84
2023-05-20T09:18:09.828Z,36.51
2023-05-20T09:19:09.856Z,36.47
2023-05-20T09:20:09.783Z,37.34
2023-05-20T09:21:09.799Z,37.66
2023-05-20T09:22:09.811Z,39.05
2023-05-20T09:23:09.856Z,43.06
2023-05-20T09:24:09.928Z,41.08
2023-05-20T09:25:09.936Z,34.62
2023-05-20T09:26:09.973Z,38.90
2023-05-20T09:27:09.990Z,45.36
2023-05-20T09:28:10.015Z,42.70
2023-05-20T09:29:10.068Z,44.87
2023-05-20T09:30:10.098Z,41.73
2023-05-20T09:31:10.169Z,45.41
2023-05-20T09:32:10.208Z,48.75
2023-05-20T09:33:10.258Z,47.40
2023-05-20T09:34:10.193Z,49.70
2023-05-20T09:35:10.227Z,49.39
2023-05-20T09:36:10.229Z,44.71
2023-05-20T09:37:10.253Z,43.52
2023-05-20T09:38:10.305Z,46.62
2023-05-20T09:39:10.326Z,47.45
2023-05-20T09:40:10.371Z,50.61
2023-05-20T09:41:10.447Z,58.67
2023-05-20T09:42:10.449Z,58.93
2023-05-20T09:43:10.491Z,51.90
2023-05-20T09:44:10.535Z,51.04
2023-05-20T09:45:10.561Z,55.35
2023-05-20T09:46:10.693Z,60.72
2023-05-20T09:47:10.665Z,64.72
2023-05-20T09:48:10.916Z,60.60
2023-05-20T09:49:10.689Z,61.27
2023-05-20T09:50:10.703Z,62.98
2023-05-20T09:51:10.727Z,59.00
2023-05-20T09:52:10.773Z,59.68
2023-05-20T09:53:10.834Z,62.94
2023-05-20T09:54:10.878Z,66.01
2023-05-20T09:55:10.919Z,71.85
2023-05-20T09:56:10.948Z,72.75
2023-05-20T09:57:10.997Z,69.21
2023-05-20T09:58:11.040Z,69.45
2023-05-20T09:59:11.097Z,62.66
2023-05-20T10:00:11.129Z,62.72
2023-05-20T10:01:11.178Z,65.41
2023-05-20T10:02:11.264Z,60.59
2023-05-20T10:03:11.296Z,58.80
2023-05-20T10:04:11.310Z,63.41
2023-05-20T10:05:11.350Z,65.20
2023-05-20T10:06:11.400Z,67.04
2023-05-20T10:07:11.435Z,59.11
2023-05-20T10:08:11.484Z,61.29
2023-05-20T10:09:11.558Z,56.99
2023-05-20T10:10:11.597Z,56.31
2023-05-20T10:11:11.664Z,57.51
2023-05-20T10:12:11.698Z,58.66
2023-05-20T10:13:11.739Z,65.02
2023-05-20T10:14:11.781Z,63.47
2023-05-20T10:15:11.789Z,61.71
2023-05-20T10:16:11.832Z,65.10
2023-05-20T10:17:11.855Z,66.76
2023-05-20T10:18:11.861Z,73.45
2023-05-20T10:19:11.951Z,72.34
2023-05-20T10:20:12.023Z,75.19
2023-05-20T10:21:11.964Z,77.94
2023-05-20T10:22:12.014Z,88.52
2023-05-20T10:23:12.032Z,82.96
2023-05-20T10:24:12.090Z,85.21
2023-05-20T10:25:12.082Z,82.54
2023-05-20T10:26:12.155Z,85.72
2023-05-20T10:27:12.235Z,89.10
2023-05-20T10:28:12.273Z,98.32
2023-05-20T10:29:12.430Z,96.52
2023-05-20T10:30:12.289Z,89.80
2023-05-20T10:31:12.358Z,103.56
2023-05-20T10:32:12.466Z,104.08
2023-05-20T10:33:12.582Z,106.43
2023-05-20T10:34:12.567Z,100.09
2023-05-20T10:35:12.694Z,104.83
2023-05-20T10:36:12.651Z,106.37
2023-05-20T10:37:12.704Z,97.03
2023-05-20T10:38:12.774Z,104.33
2023-05-20T10:39:12.853Z,110.12
2023-05-20T10:40:12.891Z,107.56
2023-05-20T10:41:12.964Z,103.08
2023-05-20T10:42:13.014Z,107.27
2023-05-20T10:43:13.202Z,116.96
2023-05-20T10:44:13.132Z,113.54
2023-05-20T10:45:13.229Z,116.82
2023-05-20T10:46:26.375Z,106.87
2023-05-20T10:47:24.537Z,107.20
2023-05-20T10:48:14.317Z,107.25
2023-05-20T10:49:13.369Z,108.98
2023-05-20T10:50:13.166Z,108.81
2023-05-20T10:51:13.179Z,100.38
2023-05-20T10:52:13.187Z,87.41
2023-05-20T10:53:21.662Z,89.53
2023-05-20T10:54:14.154Z,70.50
2023-05-20T10:55:13.129Z,87.40
2023-05-20T10:56:13.215Z,87.11
2023-05-20T10:57:13.137Z,84.64
2023-05-20T10:58:13.139Z,73.04
2023-05-20T10:59:13.124Z,76.04
2023-05-20T11:00:13.123Z,89.19
2023-05-20T11:01:13.183Z,70.05
2023-05-20T11:02:13.115Z,57.63
2023-05-20T11:03:13.191Z,69.68
2023-05-20T11:04:13.267Z,60.94
2023-05-20T11:05:13.191Z,40.74
2023-05-20T11:06:14.002Z,46.35
2023-05-20T11:07:13.297Z,50.71
2023-05-20T11:08:27.157Z,63.88
2023-05-20T11:09:14.332Z,63.98
2023-05-20T11:10:13.335Z,48.66
2023-05-20T11:11:13.348Z,53.54
2023-05-20T11:12:13.708Z,43.43
2023-05-20T11:13:13.388Z,34.57
2023-05-20T11:14:13.299Z,40.55
2023-05-20T11:15:13.315Z,41.27
2023-05-20T11:16:13.336Z,35.30
2023-05-20T11:17:13.273Z,41.63
2023-05-20T11:18:13.283Z,45.95
2023-05-20T11:19:13.350Z,41.82
2023-05-20T11:20:13.360Z,34.79
2023-05-20T11:21:13.396Z,34.47
2023-05-20T11:22:13.442Z,39.36
2023-05-20T11:23:13.481Z,31.39
2023-05-20T11:24:13.533Z,25.00
2023-05-20T11:25:13.682Z,37.39
2023-05-20T11:26:13.710Z,30.63
2023-05-20T11:27:13.793Z,33.22
2023-05-20T11:28:13.777Z,34.66
2023-05-20T11:29:13.797Z,28.83
2023-05-20T11:30:13.828Z,29.02
2023-05-20T11:31:13.825Z,31.05
2023-05-20T11:32:13.889Z,27.31
2023-05-20T11:33:14.060Z,26.56
2023-05-20T11:34:13.920Z,35.86
2023-05-20T11:35:13.906Z,37.75
2023-05-20T11:36:26.904Z,35.81
2023-05-20T11:37:14.919Z,24.83
2023-05-20T11:38:13.923Z,22.62
2023-05-20T11:39:13.914Z,24.52
2023-05-20T11:40:13.921Z,14.69
2023-05-20T11:41:13.892Z,11.63
2023-05-20T11:42:14.083Z,32.28
2023-05-20T11:43:13.877Z,48.98
2023-05-20T11:44:13.873Z,38.12
2023-05-20T11:45:13.954Z,42.61
2023-05-20T11:46:13.868Z,47.04
2023-05-20T11:47:14.075Z,43.46
2023-05-20T11:48:14.006Z,29.80
2023-05-20T11:49:13.835Z,24.46
2023-05-20T11:50:13.846Z,33.29
2023-05-20T11:51:13.838Z,37.59
2023-05-20T11:52:13.863Z,38.51
2023-05-20T11:53:13.885Z,33.63
2023-05-20T11:54:13.892Z,43.30
2023-05-20T11:55:13.916Z,35.07
2023-05-20T11:56:13.924Z,23.96
2023-05-20T11:57:13.964Z,24.46
2023-05-20T11:58:13.994Z,48.93
2023-05-20T11:59:14.050Z,41.78
2023-05-20T12:00:14.116Z,50.91
2023-05-20T12:02:16.061Z,37.55
2023-05-20T12:03:14.193Z,16.59
2023-05-20T12:04:14.199Z,33.99
2023-05-20T12:05:14.128Z,39.36
2023-05-20T12:06:14.121Z,46.75
2023-05-20T12:07:14.102Z,54.09
2023-05-20T12:08:14.107Z,50.90
2023-05-20T12:09:14.245Z,32.31
2023-05-20T12:10:14.112Z,38.13
2023-05-20T12:11:14.074Z,30.16
2023-05-20T12:12:14.088Z,24.86
2023-05-20T12:13:14.222Z,36.51
2023-05-20T12:14:14.064Z,43.04
2023-05-20T12:15:14.075Z,45.05
2023-05-20T12:16:14.069Z,38.55
2023-05-20T12:17:14.070Z,51.54
2023-05-20T12:18:14.052Z,43.15
2023-05-20T12:19:14.068Z,40.83
2023-05-20T12:20:14.029Z,35.06
2023-05-20T12:21:14.025Z,24.77
2023-05-20T12:22:14.009Z,47.71
2023-05-20T12:23:14.033Z,53.24
2023-05-20T12:24:14.019Z,33.39
2023-05-20T12:25:14.049Z,28.03
2023-05-20T12:26:14.133Z,32.58
2023-05-20T12:27:14.186Z,26.73
2023-05-20T12:28:14.219Z,33.01
2023-05-20T12:29:14.272Z,38.46
2023-05-20T12:30:14.319Z,35.68
2023-05-20T12:31:14.386Z,38.52
2023-05-20T12:32:14.509Z,39.95
2023-05-20T12:33:14.449Z,34.84
2023-05-20T12:34:14.514Z,40.72
2023-05-20T12:35:14.560Z,38.63
2023-05-20T12:36:14.593Z,38.35
2023-05-20T12:37:14.660Z,43.19
2023-05-20T12:38:14.702Z,44.41
2023-05-20T12:39:14.724Z,25.00